Aviation Digital Data Service (ADDS)

Output produced by METARs form (1313 UTC 24 January 2017)
found at http://aviationweather.gov/adds/metars/
 
KBVI 241204Z 2412/2512 30005KT 5SM -RA BR OVC005 
     TEMPO 2412/2415 2SM -RA BR OVC002 
     FM241900 31010KT P6SM OVC010 
     FM250900 22005KT P6SM OVC015